Arlington, CO

6:36 AM MDT on September 23, 2014 (GMT -0600)
La Junta Municipal | Change Station
CLOSE
Current Station
Airport
Location: La Junta,
Elevation: 4239 ft
Nearby Weather Stations

Elev 4239 ft 38.05 °N, 103.51 °W | Updated 43 minutes ago

Partly Cloudy
Partly Cloudy
58 °F
Feels Like 58 °F
N
10
Wind Variable Wind from WNW

Today
High -- | Low -- °F
--% Chance of Precip.
Yesterday
High -- | Low -- °F
Precip. -- in
6:42 AM 6:48 PM
Waning Crescent, 1% visible
Pressure 29.94 in
Visibility 10.0 miles
Clouds Mostly Cloudy 11000 ft
Dew Point 55 °F
Humidity 90%
Rainfall 0.00 in
Snow Depth 1 in , 0 in , 1 in
UV 0 out of 12
Pollen 5.70 out of 12
Air Quality Not available.
Flu Activity Not available.
METAR KLHX 231153Z AUTO 30009KT 10SM BKN110 14/13 A3008 RMK AO2 SLP139 70041 T01440128 10200 20139 53006 $

More Conditions Fewer Conditions

Pressure 29.94 in
Visibility 10.0 miles
Clouds Mostly Cloudy 11000 ft
Dew Point 55 °F
Humidity 90%
Rainfall 0.00 in
Snow Depth 1 in , 0 in , 1 in
UV 0 out of 12
Pollen 5.70 out of 12
Air Quality Not available.
Flu Activity Not available.
METAR KLHX 231153Z AUTO 30009KT 10SM BKN110 14/13 A3008 RMK AO2 SLP139 70041 T01440128 10200 20139 53006 $

More Conditions Fewer Conditions

10-Day Weather Forecast

Almanac

Astronomy

Sep. 23, 2014 Rise Set
Actual Time 6:42 AM MDT 6:48 PM MDT
Civil Twilight 6:15 AM MDT 7:15 PM MDT
Nautical Twilight 5:44 AM MDT 7:45 PM MDT
Astronomical Twilight 5:13 AM MDT 8:17 PM MDT
Moon 6:08 AM MDT 6:29 PM MDT
Length of Visible Light 12h 59m
Length of Day
12h 06m
Tomorrow will be 2m 28s shorter.
Waning Crescent, 1% of the Moon is Illuminated
Today
Waning Crescent
Sep 24
New
Oct 1
First Quarter
Oct 8
Full
Oct 15
Last Quarter

Today's Extremes

State Highs State Lows

Community

WunderPhotos

Upload Photos

1,755,662 photos uploaded!

WunderBlogs® & News

Nearby

Snow Depth

Station Depth Elevation
Lake Irene 1 in 10700 ft
Willow Creek Pass 0 in 9540 ft
Slumgullion 1 in 11440 ft
Cascade 0 in 8880 ft
Porphyry Creek 0 in 10760 ft

Earthquake Activity

City Distance Mag. Time & Date
No recent earthquake activity has been reported nearby.
Minimum magnitude displayed is 2.5.

Coastal Water Temperatures

Place Temperature
No Stations Reporting

Nearby Weather Stations